BCS1448 EBBR-LTAC
Flight info
| Callsign | BCS1448 |
|---|---|
| Flight time | N/A |
| Altitude | 41000 |
| Route | SOPOK Y863 OGLOR DCT EMGOD DCT BOMBI DCT BOREP DCT ENITA DCT ETVIS DCT BUDWA DCT BUDEX DCT TEGRI DCT NEKUL DCT LAMIT DCT ELVAB DCT RASUB DCT BULEN DCT VABUR L605 RIXEN UA17 YAVRU |
| Aircraft | B77L/H-SDE1E2E3FGHIJ2J3J4J5M1RWXYZ/LB1D1 |
Departure
| Time | 2026-05-04 12:17 |
|---|---|
| Airport | Brussels Airport (EBBR) |
Arrival
| Time | N/A |
|---|---|
| Airport | Esenboğa International Airport (LTAC) |
| Time | Latitude | Longitude | Altitude | Speed | Heading |
|---|---|---|---|---|---|
| 2026-05-04 10:51 | 50.90375 | 4.46073 | 137 ft | 0 kts | 336° |
| 2026-05-04 12:06 | 50.90376 | 4.46073 | 137 ft | 0 kts | 336° |
| 2026-05-04 12:06 | 50.90375 | 4.46073 | 137 ft | 0 kts | 336° |
| 2026-05-04 12:06 | 50.90375 | 4.46074 | 137 ft | 1 kts | 336° |
| 2026-05-04 12:06 | 50.90361 | 4.46084 | 137 ft | 2 kts | 336° |
| 2026-05-04 12:07 | 50.90348 | 4.46093 | 138 ft | 2 kts | 336° |
| 2026-05-04 12:07 | 50.90334 | 4.46102 | 138 ft | 2 kts | 349° |
| 2026-05-04 12:07 | 50.90319 | 4.46104 | 139 ft | 2 kts | 2° |
| 2026-05-04 12:07 | 50.90304 | 4.46101 | 139 ft | 2 kts | 15° |
| 2026-05-04 12:08 | 50.90290 | 4.46094 | 139 ft | 2 kts | 27° |
| 2026-05-04 12:08 | 50.90277 | 4.46081 | 140 ft | 2 kts | 40° |
| 2026-05-04 12:08 | 50.90267 | 4.46065 | 140 ft | 2 kts | 53° |
| 2026-05-04 12:08 | 50.90259 | 4.46046 | 140 ft | 1 kts | 65° |
| 2026-05-04 12:09 | 50.90257 | 4.46040 | 140 ft | 0 kts | 67° |
| 2026-05-04 12:11 | 50.90258 | 4.46042 | 140 ft | 1 kts | 67° |
| 2026-05-04 12:12 | 50.90273 | 4.46098 | 139 ft | 9 kts | 67° |
| 2026-05-04 12:12 | 50.90313 | 4.46234 | 138 ft | 16 kts | 65° |
| 2026-05-04 12:12 | 50.90361 | 4.46406 | 137 ft | 17 kts | 77° |
| 2026-05-04 12:12 | 50.90336 | 4.46589 | 137 ft | 17 kts | 116° |
| 2026-05-04 12:13 | 50.90282 | 4.46762 | 137 ft | 17 kts | 117° |
| 2026-05-04 12:14 | 50.90526 | 4.48388 | 135 ft | 29 kts | 66° |
| 2026-05-04 12:15 | 50.90609 | 4.48674 | 135 ft | 28 kts | 65° |
| 2026-05-04 12:15 | 50.90689 | 4.48953 | 135 ft | 27 kts | 66° |
| 2026-05-04 12:15 | 50.90768 | 4.49224 | 135 ft | 26 kts | 66° |
| 2026-05-04 12:15 | 50.90845 | 4.49492 | 133 ft | 26 kts | 66° |
| 2026-05-04 12:16 | 50.90921 | 4.49752 | 132 ft | 26 kts | 62° |
| 2026-05-04 12:16 | 50.91048 | 4.49943 | 129 ft | 16 kts | 41° |
| 2026-05-04 12:16 | 50.91067 | 4.50071 | 129 ft | 9 kts | 126° |
| 2026-05-04 12:16 | 50.91005 | 4.50082 | 130 ft | 11 kts | 195° |
| 2026-05-04 12:17 | 50.90807 | 4.50001 | 135 ft | 63 kts | 194° |
| 2026-05-04 12:17 | 50.90103 | 4.49717 | 154 ft | 145 kts | 194° |
| 2026-05-04 12:17 | 50.88980 | 4.49277 | 669 ft | 172 kts | 194° |
| 2026-05-04 12:17 | 50.87799 | 4.48921 | 1505 ft | 184 kts | 179° |
| 2026-05-04 12:18 | 50.86552 | 4.49433 | 2199 ft | 196 kts | 152° |
| 2026-05-04 12:18 | 50.85407 | 4.50732 | 2836 ft | 213 kts | 142° |
| 2026-05-04 12:18 | 50.84210 | 4.52228 | 3601 ft | 228 kts | 142° |
| 2026-05-04 12:18 | 50.82935 | 4.53826 | 4321 ft | 245 kts | 142° |
| 2026-05-04 12:19 | 50.81565 | 4.55541 | 5023 ft | 263 kts | 142° |
| 2026-05-04 12:19 | 50.80107 | 4.57365 | 5958 ft | 271 kts | 142° |
| 2026-05-04 12:19 | 50.78648 | 4.59189 | 7006 ft | 274 kts | 142° |
| 2026-05-04 12:19 | 50.77154 | 4.61078 | 7960 ft | 279 kts | 141° |
| 2026-05-04 12:20 | 50.75697 | 4.63087 | 8893 ft | 284 kts | 140° |
| 2026-05-04 12:20 | 50.74233 | 4.65119 | 9822 ft | 287 kts | 140° |
| 2026-05-04 12:20 | 50.72699 | 4.67195 | 10603 ft | 297 kts | 141° |
| 2026-05-04 12:20 | 50.71153 | 4.69488 | 11235 ft | 314 kts | 132° |
| 2026-05-04 12:21 | 50.69890 | 4.72366 | 11882 ft | 331 kts | 119° |
| 2026-05-04 12:21 | 50.69024 | 4.75821 | 12576 ft | 349 kts | 108° |
| 2026-05-04 12:21 | 50.68351 | 4.79555 | 13334 ft | 364 kts | 107° |
| 2026-05-04 12:21 | 50.67657 | 4.83452 | 14132 ft | 380 kts | 108° |
| 2026-05-04 12:22 | 50.66919 | 4.87515 | 14959 ft | 396 kts | 108° |
| 2026-05-04 12:22 | 50.66147 | 4.91725 | 15953 ft | 408 kts | 108° |
| 2026-05-04 12:22 | 50.65307 | 4.95979 | 17068 ft | 416 kts | 109° |
| 2026-05-04 12:22 | 50.64410 | 5.00329 | 18224 ft | 422 kts | 109° |
| 2026-05-04 12:23 | 50.63504 | 5.04721 | 19340 ft | 429 kts | 110° |
| 2026-05-04 12:23 | 50.62576 | 5.09211 | 20387 ft | 436 kts | 110° |
| 2026-05-04 12:23 | 50.61633 | 5.13771 | 21393 ft | 444 kts | 110° |
| 2026-05-04 12:23 | 50.60684 | 5.18353 | 22379 ft | 451 kts | 111° |
| 2026-05-04 12:24 | 50.59702 | 5.23084 | 23324 ft | 459 kts | 111° |
| 2026-05-04 12:24 | 50.58685 | 5.27810 | 24333 ft | 462 kts | 115° |
| 2026-05-04 12:24 | 50.57285 | 5.32355 | 25287 ft | 463 kts | 124° |
| 2026-05-04 12:24 | 50.55438 | 5.36493 | 26140 ft | 465 kts | 134° |
| 2026-05-04 12:25 | 50.53193 | 5.40110 | 26991 ft | 467 kts | 142° |
| 2026-05-04 12:25 | 50.50762 | 5.43423 | 27982 ft | 470 kts | 143° |
| 2026-05-04 12:25 | 50.48265 | 5.46774 | 29057 ft | 472 kts | 143° |
| 2026-05-04 12:25 | 50.45792 | 5.50085 | 30095 ft | 475 kts | 144° |
| 2026-05-04 12:26 | 50.43289 | 5.53435 | 31217 ft | 474 kts | 144° |
| 2026-05-04 12:26 | 50.40803 | 5.56757 | 32352 ft | 471 kts | 144° |
| 2026-05-04 12:26 | 50.38344 | 5.60039 | 33402 ft | 469 kts | 145° |
| 2026-05-04 12:26 | 50.35818 | 5.63404 | 34343 ft | 468 kts | 145° |
| 2026-05-04 12:27 | 50.33305 | 5.66746 | 35180 ft | 467 kts | 146° |
| 2026-05-04 12:27 | 50.30810 | 5.70059 | 35857 ft | 467 kts | 145° |
| 2026-05-04 12:27 | 50.28434 | 5.73618 | 36489 ft | 473 kts | 137° |
| 2026-05-04 12:27 | 50.26419 | 5.77659 | 37200 ft | 478 kts | 128° |
| 2026-05-04 12:28 | 50.24764 | 5.82228 | 37924 ft | 483 kts | 120° |
| 2026-05-04 12:28 | 50.23558 | 5.87139 | 38603 ft | 487 kts | 111° |
| 2026-05-04 12:28 | 50.22668 | 5.92281 | 39197 ft | 488 kts | 109° |
| 2026-05-04 12:28 | 50.21841 | 5.97308 | 39781 ft | 486 kts | 108° |
| 2026-05-04 12:29 | 50.21002 | 6.02381 | 40205 ft | 485 kts | 108° |
| 2026-05-04 12:29 | 50.20145 | 6.07511 | 40473 ft | 487 kts | 108° |
| 2026-05-04 12:29 | 50.19286 | 6.12612 | 40691 ft | 490 kts | 107° |
| 2026-05-04 12:29 | 50.18648 | 6.17802 | 40928 ft | 495 kts | 99° |
| 2026-05-04 12:30 | 50.18718 | 6.28558 | 40982 ft | 498 kts | 86° |
| 2026-05-04 12:30 | 50.19414 | 6.39313 | 40984 ft | 498 kts | 86° |
| 2026-05-04 12:31 | 50.20092 | 6.50051 | 40988 ft | 500 kts | 86° |
| 2026-05-04 12:31 | 50.20749 | 6.60766 | 40988 ft | 500 kts | 86° |
| 2026-05-04 12:32 | 50.20760 | 6.76910 | 40993 ft | 496 kts | 94° |
| 2026-05-04 12:33 | 50.20564 | 6.87684 | 41005 ft | 497 kts | 95° |
| 2026-05-04 12:33 | 50.20360 | 6.98387 | 41003 ft | 498 kts | 94° |
| 2026-05-04 12:34 | 50.20145 | 7.09201 | 41009 ft | 498 kts | 94° |
| 2026-05-04 12:34 | 50.19920 | 7.19990 | 40998 ft | 498 kts | 94° |
| 2026-05-04 12:35 | 50.19685 | 7.30777 | 41006 ft | 498 kts | 95° |
| 2026-05-04 12:35 | 50.18890 | 7.41407 | 41004 ft | 496 kts | 100° |
| 2026-05-04 12:36 | 50.17936 | 7.52027 | 40989 ft | 494 kts | 100° |
| 2026-05-04 12:36 | 50.16978 | 7.62572 | 40996 ft | 495 kts | 100° |
| 2026-05-04 12:37 | 50.16008 | 7.73172 | 40986 ft | 494 kts | 101° |
| 2026-05-04 12:37 | 50.15034 | 7.83697 | 40987 ft | 494 kts | 101° |
| 2026-05-04 12:38 | 50.14038 | 7.94355 | 40993 ft | 493 kts | 101° |
| 2026-05-04 12:38 | 50.13048 | 8.04851 | 40993 ft | 495 kts | 101° |
| 2026-05-04 12:39 | 50.12039 | 8.15436 | 40991 ft | 494 kts | 101° |
| 2026-05-04 12:39 | 50.11023 | 8.25996 | 41006 ft | 495 kts | 101° |
| 2026-05-04 12:40 | 50.09996 | 8.36560 | 41005 ft | 495 kts | 101° |
| 2026-05-04 12:40 | 50.08964 | 8.47077 | 41010 ft | 495 kts | 101° |
| 2026-05-04 12:41 | 50.07917 | 8.57650 | 41010 ft | 495 kts | 101° |
| 2026-05-04 12:41 | 50.06859 | 8.68222 | 40998 ft | 493 kts | 102° |
| 2026-05-04 12:42 | 50.05794 | 8.78769 | 41001 ft | 495 kts | 102° |
| 2026-05-04 12:42 | 50.05121 | 8.89385 | 40983 ft | 497 kts | 96° |
| 2026-05-04 12:43 | 50.04725 | 9.00130 | 40973 ft | 498 kts | 96° |
| 2026-05-04 12:43 | 50.04293 | 9.10825 | 40983 ft | 497 kts | 96° |
| 2026-05-04 12:44 | 50.03833 | 9.21534 | 40992 ft | 497 kts | 96° |
| 2026-05-04 12:44 | 50.03353 | 9.32258 | 40986 ft | 497 kts | 96° |
| 2026-05-04 12:45 | 50.02859 | 9.42948 | 41001 ft | 498 kts | 96° |
| 2026-05-04 12:45 | 50.02354 | 9.53628 | 41002 ft | 496 kts | 96° |
| 2026-05-04 12:46 | 50.01836 | 9.64305 | 40993 ft | 496 kts | 96° |
| 2026-05-04 12:46 | 50.01308 | 9.74982 | 40991 ft | 496 kts | 97° |
| 2026-05-04 12:47 | 50.00768 | 9.85688 | 40992 ft | 497 kts | 97° |
| 2026-05-04 12:47 | 50.00222 | 9.96315 | 40997 ft | 496 kts | 97° |
| 2026-05-04 12:48 | 49.99665 | 10.06975 | 40994 ft | 497 kts | 97° |
| 2026-05-04 12:48 | 49.99092 | 10.17728 | 40983 ft | 497 kts | 97° |
| 2026-05-04 12:49 | 49.98512 | 10.28428 | 40989 ft | 498 kts | 97° |
| 2026-05-04 12:49 | 49.97925 | 10.39085 | 40984 ft | 497 kts | 96° |
| 2026-05-04 12:50 | 49.97324 | 10.49792 | 40993 ft | 497 kts | 96° |
| 2026-05-04 12:50 | 49.96714 | 10.60448 | 40993 ft | 496 kts | 98° |
| 2026-05-04 12:51 | 49.95476 | 10.70941 | 40990 ft | 494 kts | 104° |
| 2026-05-04 12:51 | 49.94075 | 10.81321 | 40990 ft | 493 kts | 104° |
| 2026-05-04 12:52 | 49.92663 | 10.91691 | 40984 ft | 494 kts | 104° |
| 2026-05-04 12:52 | 49.91240 | 11.02061 | 40976 ft | 494 kts | 104° |
| 2026-05-04 12:53 | 49.89803 | 11.12454 | 40978 ft | 494 kts | 104° |
| 2026-05-04 12:53 | 49.88354 | 11.22852 | 40985 ft | 494 kts | 104° |
| 2026-05-04 12:54 | 49.86895 | 11.33260 | 40997 ft | 494 kts | 104° |
| 2026-05-04 12:54 | 49.85428 | 11.43649 | 40996 ft | 494 kts | 104° |
| 2026-05-04 12:55 | 49.83955 | 11.54004 | 40993 ft | 494 kts | 104° |
| 2026-05-04 12:55 | 49.82465 | 11.64405 | 40998 ft | 495 kts | 104° |
| 2026-05-04 12:56 | 49.80977 | 11.74725 | 41003 ft | 493 kts | 105° |
| 2026-05-04 12:56 | 49.79472 | 11.85094 | 41015 ft | 493 kts | 105° |
| 2026-05-04 12:57 | 49.77962 | 11.95426 | 41040 ft | 494 kts | 104° |
| 2026-05-04 12:57 | 49.76445 | 12.05738 | 41031 ft | 495 kts | 105° |
| 2026-05-04 12:58 | 49.74915 | 12.16063 | 41020 ft | 494 kts | 104° |
| 2026-05-04 12:58 | 49.73378 | 12.26375 | 41011 ft | 494 kts | 105° |
| 2026-05-04 12:59 | 49.71829 | 12.36694 | 41006 ft | 494 kts | 104° |
| 2026-05-04 12:59 | 49.70269 | 12.47019 | 41012 ft | 493 kts | 104° |
| 2026-05-04 13:00 | 49.68808 | 12.57305 | 41031 ft | 493 kts | 103° |
| 2026-05-04 13:00 | 49.67369 | 12.67628 | 41010 ft | 492 kts | 104° |
| 2026-05-04 13:01 | 49.65818 | 12.77866 | 41007 ft | 490 kts | 110° |
| 2026-05-04 13:01 | 49.62905 | 12.87218 | 41003 ft | 485 kts | 126° |
| 2026-05-04 13:02 | 49.59122 | 12.95810 | 41006 ft | 484 kts | 127° |
| 2026-05-04 13:02 | 49.55325 | 13.04343 | 41006 ft | 485 kts | 127° |
| 2026-05-04 13:03 | 49.51516 | 13.12923 | 41018 ft | 486 kts | 127° |
| 2026-05-04 13:03 | 49.47732 | 13.21411 | 41024 ft | 485 kts | 127° |
| 2026-05-04 13:04 | 49.43915 | 13.29962 | 41025 ft | 485 kts | 126° |
| 2026-05-04 13:04 | 49.40083 | 13.38533 | 41024 ft | 485 kts | 126° |
| 2026-05-04 13:05 | 49.36265 | 13.47056 | 41023 ft | 486 kts | 126° |
| 2026-05-04 13:05 | 49.32446 | 13.55559 | 41022 ft | 486 kts | 126° |
| 2026-05-04 13:06 | 49.28628 | 13.64045 | 41021 ft | 486 kts | 126° |
| 2026-05-04 13:06 | 49.24799 | 13.72529 | 41010 ft | 485 kts | 127° |
| 2026-05-04 13:07 | 49.20954 | 13.81017 | 41014 ft | 484 kts | 127° |
| 2026-05-04 13:07 | 49.17136 | 13.89409 | 41020 ft | 485 kts | 127° |
| 2026-05-04 13:08 | 49.13282 | 13.97870 | 41018 ft | 484 kts | 127° |
| 2026-05-04 13:08 | 49.09454 | 14.06270 | 41017 ft | 485 kts | 127° |
| 2026-05-04 13:09 | 49.05621 | 14.14663 | 41018 ft | 484 kts | 127° |
| 2026-05-04 13:09 | 49.01774 | 14.23066 | 41016 ft | 485 kts | 127° |
| 2026-05-04 13:10 | 48.97897 | 14.31510 | 41011 ft | 486 kts | 127° |
| 2026-05-04 13:10 | 48.94036 | 14.39887 | 41014 ft | 486 kts | 127° |
| 2026-05-04 13:11 | 48.90142 | 14.48314 | 41012 ft | 487 kts | 127° |
| 2026-05-04 13:11 | 48.86258 | 14.56703 | 41008 ft | 486 kts | 127° |
| 2026-05-04 13:12 | 48.82396 | 14.65039 | 41014 ft | 487 kts | 127° |
| 2026-05-04 13:12 | 48.78482 | 14.73463 | 41011 ft | 487 kts | 127° |
| 2026-05-04 13:13 | 48.74585 | 14.81826 | 41010 ft | 486 kts | 127° |
| 2026-05-04 13:13 | 48.70673 | 14.90194 | 41011 ft | 488 kts | 127° |
| 2026-05-04 13:14 | 48.66769 | 14.98515 | 41024 ft | 488 kts | 127° |
| 2026-05-04 13:14 | 48.62838 | 15.06862 | 41014 ft | 488 kts | 127° |
| 2026-05-04 13:15 | 48.58933 | 15.15133 | 41019 ft | 487 kts | 127° |
| 2026-05-04 13:15 | 48.54973 | 15.23483 | 41025 ft | 487 kts | 127° |
| 2026-05-04 13:16 | 48.51044 | 15.31745 | 41024 ft | 489 kts | 127° |
| 2026-05-04 13:16 | 48.47082 | 15.40056 | 41028 ft | 489 kts | 127° |
| 2026-05-04 13:17 | 48.43117 | 15.48336 | 41022 ft | 488 kts | 127° |
| 2026-05-04 13:17 | 48.39162 | 15.56560 | 41010 ft | 489 kts | 127° |
| 2026-05-04 13:18 | 48.35172 | 15.64847 | 41011 ft | 489 kts | 127° |
| 2026-05-04 13:18 | 48.31191 | 15.73109 | 40998 ft | 488 kts | 127° |
| 2026-05-04 13:19 | 48.27215 | 15.81311 | 40988 ft | 490 kts | 127° |
| 2026-05-04 13:19 | 48.23185 | 15.89567 | 40987 ft | 490 kts | 127° |
| 2026-05-04 13:20 | 48.19632 | 15.98273 | 40991 ft | 490 kts | 112° |
| 2026-05-04 13:20 | 48.17951 | 16.08103 | 40995 ft | 490 kts | 94° |
| 2026-05-04 13:21 | 48.18348 | 16.18275 | 41005 ft | 487 kts | 76° |
| 2026-05-04 13:21 | 48.20776 | 16.27661 | 41010 ft | 484 kts | 57° |
| 2026-05-04 13:22 | 48.24986 | 16.35429 | 41019 ft | 479 kts | 39° |
| 2026-05-04 13:22 | 48.30078 | 16.41824 | 41023 ft | 478 kts | 37° |
| 2026-05-04 13:23 | 48.35205 | 16.48144 | 41021 ft | 478 kts | 37° |
| 2026-05-04 13:23 | 48.40339 | 16.54468 | 41016 ft | 478 kts | 37° |
| 2026-05-04 13:24 | 48.45504 | 16.60826 | 41023 ft | 477 kts | 37° |
| 2026-05-04 13:24 | 48.50632 | 16.67136 | 41016 ft | 478 kts | 38° |
| 2026-05-04 13:25 | 48.58346 | 16.76630 | 41023 ft | 478 kts | 37° |
| 2026-05-04 13:25 | 48.63500 | 16.82983 | 41026 ft | 479 kts | 37° |
| 2026-05-04 13:26 | 48.68649 | 16.89329 | 41025 ft | 479 kts | 37° |
| 2026-05-04 13:26 | 48.73832 | 16.95723 | 41032 ft | 478 kts | 37° |
| 2026-05-04 13:27 | 48.78982 | 17.02104 | 41030 ft | 478 kts | 37° |
| 2026-05-04 13:27 | 48.84111 | 17.08465 | 41043 ft | 478 kts | 37° |
| 2026-05-04 13:28 | 48.89263 | 17.14857 | 41043 ft | 478 kts | 37° |
| 2026-05-04 13:28 | 48.94420 | 17.21262 | 41054 ft | 478 kts | 37° |
| 2026-05-04 13:29 | 48.99556 | 17.27648 | 40866 ft | 478 kts | 37° |
| 2026-05-04 13:29 | 49.02145 | 17.30799 | 40067 ft | 481 kts | 33° |
| 2026-05-04 13:29 | 49.04903 | 17.33637 | 38878 ft | 487 kts | 31° |
| 2026-05-04 13:30 | 49.07745 | 17.36462 | 37560 ft | 493 kts | 31° |
| 2026-05-04 13:30 | 49.10645 | 17.39345 | 36384 ft | 498 kts | 31° |
| 2026-05-04 13:30 | 49.13584 | 17.42270 | 35389 ft | 501 kts | 31° |
| 2026-05-04 13:30 | 49.16509 | 17.45186 | 34367 ft | 502 kts | 31° |
| 2026-05-04 13:31 | 49.19420 | 17.48092 | 33267 ft | 503 kts | 31° |
| 2026-05-04 13:31 | 49.22313 | 17.50984 | 32178 ft | 504 kts | 31° |
| 2026-05-04 13:31 | 49.25269 | 17.53943 | 31077 ft | 505 kts | 31° |
| 2026-05-04 13:31 | 49.28166 | 17.56848 | 30005 ft | 505 kts | 31° |
| 2026-05-04 13:32 | 49.31123 | 17.59818 | 28929 ft | 506 kts | 31° |
| 2026-05-04 13:32 | 49.34045 | 17.62756 | 27868 ft | 506 kts | 32° |
| 2026-05-04 13:32 | 49.36957 | 17.65687 | 26814 ft | 505 kts | 32° |
| 2026-05-04 13:32 | 49.39894 | 17.68650 | 25750 ft | 504 kts | 32° |
| 2026-05-04 13:33 | 49.42791 | 17.71576 | 24498 ft | 489 kts | 33° |
| 2026-05-04 13:33 | 49.45547 | 17.74365 | 23347 ft | 473 kts | 33° |
| 2026-05-04 13:33 | 49.48264 | 17.77118 | 22194 ft | 460 kts | 33° |
| 2026-05-04 13:33 | 49.50867 | 17.79758 | 21053 ft | 449 kts | 33° |
| 2026-05-04 13:34 | 49.53442 | 17.82374 | 19913 ft | 438 kts | 33° |
| 2026-05-04 13:34 | 49.55957 | 17.84931 | 18773 ft | 430 kts | 33° |
| 2026-05-04 13:34 | 49.58394 | 17.87412 | 17638 ft | 422 kts | 33° |
| 2026-05-04 13:34 | 49.60824 | 17.89888 | 16488 ft | 415 kts | 33° |
| 2026-05-04 13:35 | 49.63190 | 17.92302 | 15371 ft | 409 kts | 33° |
| 2026-05-04 13:35 | 49.67860 | 17.97074 | 13157 ft | 411 kts | 33° |
| 2026-05-04 13:35 | 49.70250 | 17.99522 | 12023 ft | 418 kts | 33° |
| 2026-05-04 13:36 | 49.72657 | 18.01989 | 11263 ft | 409 kts | 33° |
| 2026-05-04 13:36 | 49.74958 | 18.04350 | 10546 ft | 389 kts | 34° |
| 2026-05-04 13:36 | 49.77168 | 18.06620 | 9902 ft | 370 kts | 34° |
| 2026-05-04 13:36 | 49.79243 | 18.08754 | 9360 ft | 353 kts | 34° |
| 2026-05-04 13:37 | 49.81233 | 18.10803 | 8919 ft | 336 kts | 34° |
| 2026-05-04 13:37 | 49.83141 | 18.12769 | 8546 ft | 319 kts | 34° |
| 2026-05-04 13:37 | 49.84935 | 18.14620 | 8257 ft | 302 kts | 34° |
| 2026-05-04 13:37 | 49.86080 | 18.15808 | 7972 ft | 297 kts | 36° |
| 2026-05-04 13:38 | 49.87976 | 18.18808 | 7107 ft | 295 kts | 64° |
| 2026-05-04 13:38 | 49.88545 | 18.21779 | 6433 ft | 289 kts | 92° |
| 2026-05-04 13:38 | 49.88200 | 18.24726 | 6059 ft | 268 kts | 118° |
| 2026-05-04 13:38 | 49.87186 | 18.26976 | 5805 ft | 248 kts | 140° |
| 2026-05-04 13:39 | 49.85902 | 18.28699 | 5409 ft | 239 kts | 143° |
| 2026-05-04 13:39 | 49.84622 | 18.30111 | 5005 ft | 220 kts | 161° |
| 2026-05-04 13:39 | 49.83174 | 18.30428 | 4624 ft | 202 kts | 182° |
| 2026-05-04 13:39 | 49.81826 | 18.30171 | 4278 ft | 191 kts | 189° |
| 2026-05-04 13:40 | 49.80542 | 18.30036 | 3918 ft | 183 kts | 200° |
| 2026-05-04 13:40 | 49.79606 | 18.28846 | 3391 ft | 174 kts | 231° |
| 2026-05-04 13:40 | 49.78969 | 18.27343 | 2994 ft | 163 kts | 233° |
| 2026-05-04 13:40 | 49.78382 | 18.25963 | 2805 ft | 147 kts | 231° |
| 2026-05-04 13:41 | 49.77805 | 18.24745 | 2664 ft | 133 kts | 229° |
| 2026-05-04 13:41 | 49.77245 | 18.23622 | 2555 ft | 130 kts | 227° |
| 2026-05-04 13:41 | 49.76663 | 18.22550 | 2482 ft | 130 kts | 226° |
| 2026-05-04 13:42 | 49.75456 | 18.20547 | 2135 ft | 127 kts | 224° |
| 2026-05-04 13:42 | 49.74853 | 18.19536 | 1981 ft | 128 kts | 223° |
| 2026-05-04 13:42 | 49.74246 | 18.18572 | 1781 ft | 124 kts | 223° |
| 2026-05-04 13:42 | 49.73645 | 18.17625 | 1663 ft | 126 kts | 223° |
| 2026-05-04 13:43 | 49.73038 | 18.16647 | 1494 ft | 125 kts | 225° |
| 2026-05-04 13:43 | 49.72440 | 18.15656 | 1311 ft | 127 kts | 224° |
| 2026-05-04 13:43 | 49.71830 | 18.14644 | 1140 ft | 126 kts | 225° |
| 2026-05-04 13:43 | 49.71216 | 18.13663 | 1036 ft | 128 kts | 224° |
| 2026-05-04 13:44 | 49.70600 | 18.12670 | 853 ft | 128 kts | 225° |
| 2026-05-04 13:44 | 49.70033 | 18.11748 | 842 ft | 99 kts | 226° |
| 2026-05-04 13:44 | 49.69664 | 18.11153 | 846 ft | 55 kts | 225° |
| 2026-05-04 13:44 | 49.69434 | 18.10782 | 848 ft | 43 kts | 226° |
| 2026-05-04 13:45 | 49.69236 | 18.10468 | 851 ft | 37 kts | 225° |
| 2026-05-04 13:45 | 49.69074 | 18.10202 | 853 ft | 31 kts | 227° |
| 2026-05-04 13:45 | 49.68971 | 18.10050 | 854 ft | 10 kts | 189° |
| 2026-05-04 13:45 | 49.68908 | 18.10110 | 855 ft | 12 kts | 135° |
| 2026-05-04 13:46 | 49.68835 | 18.10215 | 855 ft | 14 kts | 137° |
| 2026-05-04 13:46 | 49.68762 | 18.10319 | 855 ft | 14 kts | 137° |
| 2026-05-04 13:46 | 49.68695 | 18.10417 | 855 ft | 7 kts | 135° |
| 2026-05-04 13:46 | 49.68692 | 18.10422 | 855 ft | 0 kts | 135° |